Time;durP1;ratioP1;P1;durP2;ratioP2;P2;SDS_P1;SDS_P2;PMS_P1;PMS_P2;Temp;Humidity;BMP_temperature;BMP_pressure;BME280_temperature;BME280_humidity;BME280_pressure;Samples;Min_cycle;Max_cycle;Signal;HPM_P1;HPM_P2
2022/03/23 00:00:02;;;;;;;10.65;5.50;;;;;;;;;;4999633;28;20034;-70
2022/03/23 00:02:28;;;;;;;13.53;4.93;;;;;;;;;;4999527;28;20022;-70
2022/03/23 00:04:55;;;;;;;12.20;4.88;;;;;;;;;;4997901;28;20854;-69
2022/03/23 00:07:21;;;;;;;8.00;5.10;;;;;;;;;;5000340;28;20076;-70
2022/03/23 00:09:48;;;;;;;11.50;4.43;;;;;;;;;;4995957;28;20057;-69
2022/03/23 00:12:14;;;;;;;7.13;3.63;;;;;;;;;;4999915;28;20037;-69
2022/03/23 00:14:41;;;;;;;4.90;2.77;;;;;;;;;;4996765;28;20125;-70
2022/03/23 00:17:07;;;;;;;11.87;4.83;;;;;;;;;;4997852;28;20871;-70
2022/03/23 00:19:33;;;;;;;9.82;3.65;;;;;;;;;;4996856;28;20041;-71
2022/03/23 00:22:00;;;;;;;9.50;3.83;;;;;;;;;;4995084;28;20067;-70
2022/03/23 00:24:26;;;;;;;8.27;4.38;;;;;;;;;;4996825;28;20033;-69
2022/03/23 00:26:52;;;;;;;7.25;4.40;;;;;;;;;;4995809;28;20026;-69
2022/03/23 00:29:18;;;;;;;9.13;5.00;;;;;;;;;;4996146;28;20067;-69
2022/03/23 00:31:44;;;;;;;11.98;3.88;;;;;;;;;;4997183;28;20116;-70
2022/03/23 00:34:10;;;;;;;10.65;5.75;;;;;;;;;;4997970;28;20034;-70
2022/03/23 00:36:37;;;;;;;9.50;4.40;;;;;;;;;;4995888;28;20030;-69
2022/03/23 00:39:03;;;;;;;5.80;4.22;;;;;;;;;;4996768;28;20030;-70
2022/03/23 00:41:29;;;;;;;8.52;3.15;;;5.30;84.10;;;;;;4997417;28;20057;-70
2022/03/23 00:43:55;;;;;;;6.82;3.33;;;;;;;;;;4996233;28;20030;-69
2022/03/23 00:46:22;;;;;;;6.32;3.50;;;;;;;;;;4998177;28;20045;-70
2022/03/23 00:48:49;;;;;;;8.18;4.22;;;;;;;;;;4996547;28;20096;-70
2022/03/23 00:51:15;;;;;;;8.75;4.45;;;;;;;;;;4996438;28;20049;-69
2022/03/23 00:53:40;;;;;;;7.82;3.92;;;5.10;82.20;;;;;;4997736;28;20169;-68
2022/03/23 00:56:06;;;;;;;8.48;3.85;;;;;;;;;;4998372;28;20116;-69
2022/03/23 00:58:32;;;;;;;12.65;3.42;;;;;;;;;;4999739;28;20518;-69
2022/03/23 01:00:59;;;;;;;13.10;4.28;;;;;;;;;;4980465;28;20634;-69
2022/03/23 01:03:25;;;;;;;5.60;3.38;;;;;;;;;;4996534;28;20113;-70
2022/03/23 01:05:51;;;;;;;15.75;4.43;;;;;;;;;;4995876;28;20092;-69
2022/03/23 01:08:18;;;;;;;9.10;4.45;;;;;;;;;;4995365;28;20022;-70
2022/03/23 01:10:44;;;;;;;8.73;4.10;;;4.60;86.30;;;;;;4992704;28;20404;-70
2022/03/23 01:13:10;;;;;;;12.07;5.82;;;;;;;;;;4997417;28;20494;-69
2022/03/23 01:15:36;;;;;;;10.25;3.88;;;4.80;94.00;;;;;;4995744;28;20025;-68
2022/03/23 01:18:02;;;;;;;9.02;4.70;;;;;;;;;;4995272;28;20038;-69
2022/03/23 01:20:29;;;;;;;10.50;3.47;;;;;;;;;;4994030;28;20043;-70
2022/03/23 01:22:54;;;;;;;8.03;3.47;;;;;;;;;;4996111;28;20026;-70
2022/03/23 01:25:21;;;;;;;11.65;5.63;;;;;;;;;;4997671;28;20269;-69
2022/03/23 01:27:48;;;;;;;11.90;4.27;;;;;;;;;;4998430;28;20026;-69
2022/03/23 01:30:14;;;;;;;7.63;5.50;;;;;;;;;;4997248;28;20503;-69
2022/03/23 01:32:40;;;;;;;15.82;4.88;;;;;;;;;;4996107;28;20493;-70
2022/03/23 01:35:07;;;;;;;9.45;3.90;;;;;;;;;;4996274;28;20037;-69
2022/03/23 01:37:34;;;;;;;3.97;2.83;;;;;;;;;;4999645;28;20103;-70
2022/03/23 01:40:00;;;;;;;11.15;4.30;;;;;;;;;;5001383;28;20030;-69
2022/03/23 01:42:30;;;;;;;7.97;4.25;;;;;;;;;;4982463;28;20038;-69
2022/03/23 01:44:56;;;;;;;9.15;4.28;;;;;;;;;;5002875;28;20033;-70
2022/03/23 01:47:22;;;;;;;9.15;4.40;;;;;;;;;;5002378;28;20073;-69
2022/03/23 01:49:49;;;;;;;7.32;3.88;;;;;;;;;;5001477;28;20026;-70
2022/03/23 01:52:18;;;;;;;5.50;3.58;;;;;;;;;;5001151;28;20050;-69
2022/03/23 01:54:44;;;;;;;7.53;3.80;;;;;;;;;;4999093;28;20029;-69
2022/03/23 01:57:12;;;;;;;6.85;4.38;;;;;;;;;;4999770;28;20034;-69
2022/03/23 01:59:38;;;;;;;10.38;4.07;;;;;;;;;;4999253;28;20042;-69
2022/03/23 02:02:05;;;;;;;10.60;3.60;;;4.30;77.80;;;;;;5000023;28;20575;-69
2022/03/23 02:04:31;;;;;;;5.45;2.63;;;;;;;;;;5000123;28;20129;-69
2022/03/23 02:06:57;;;;;;;7.88;3.13;;;;;;;;;;4999799;28;20027;-69
2022/03/23 02:09:25;;;;;;;5.35;2.85;;;;;;;;;;4999162;28;20029;-69
2022/03/23 02:11:52;;;;;;;12.73;3.10;;;;;;;;;;4999132;28;20062;-70
2022/03/23 02:14:18;;;;;;;5.65;2.90;;;;;;;;;;4998222;28;20033;-69
2022/03/23 02:16:45;;;;;;;11.45;3.28;;;;;;;;;;4999591;28;20030;-69
2022/03/23 02:19:11;;;;;;;5.90;3.17;;;;;;;;;;4999918;28;20034;-69
2022/03/23 02:21:38;;;;;;;10.70;3.25;;;;;;;;;;4997904;28;20495;-69
2022/03/23 02:24:04;;;;;;;4.57;3.13;;;;;;;;;;4997982;28;20038;-69
2022/03/23 02:26:31;;;;;;;7.07;3.53;;;;;;;;;;4979969;28;20030;-69
2022/03/23 02:28:57;;;;;;;7.90;2.97;;;;;;;;;;4998550;28;28233;-69
2022/03/23 02:31:23;;;;;;;11.20;3.60;;;;;;;;;;5001596;28;20135;-70
2022/03/23 02:33:49;;;;;;;4.90;3.30;;;;;;;;;;4997975;28;20026;-69
2022/03/23 02:36:15;;;;;;;8.63;3.83;;;3.80;87.10;;;;;;4998572;28;20133;-69
2022/03/23 02:38:41;;;;;;;4.75;3.40;;;;;;;;;;4998722;28;20705;-69
2022/03/23 02:41:08;;;;;;;7.88;5.03;;;;;;;;;;4998377;28;20513;-68
2022/03/23 02:43:34;;;;;;;7.55;3.00;;;;;;;;;;5000084;28;20026;-70
2022/03/23 02:46:02;;;;;;;5.82;3.40;;;;;;;;;;4998391;28;20045;-69
2022/03/23 02:48:28;;;;;;;5.20;3.88;;;;;;;;;;4998539;28;20034;-69
2022/03/23 02:50:54;;;;;;;5.60;4.18;;;;;;;;;;4998163;28;21381;-71
2022/03/23 03:01:56;;;;;;;9.00;3.55;;;;;;;;;;4938914;28;20055;-70
2022/03/23 03:04:23;;;;;;;5.60;3.67;;;;;;;;;;4937130;28;20140;-69
2022/03/23 03:06:50;;;;;;;5.97;3.53;;;;;;;;;;4938510;28;20150;-69
2022/03/23 03:09:16;;;;;;;7.80;4.63;;;;;;;;;;4941674;28;20028;-70
2022/03/23 03:11:43;;;;;;;12.10;3.53;;;3.40;81.00;;;;;;4939497;28;20279;-70
2022/03/23 03:14:10;;;;;;;14.57;4.55;;;;;;;;;;4939001;28;20528;-69
2022/03/23 03:16:36;;;;;;;9.70;3.80;;;3.40;96.50;;;;;;4938619;28;20051;-69
2022/03/23 03:19:02;;;;;;;6.75;4.30;;;;;;;;;;4939498;28;20059;-69
2022/03/23 03:21:29;;;;;;;10.48;3.75;;;;;;;;;;4938220;28;20042;-69
2022/03/23 03:23:55;;;;;;;11.75;3.38;;;;;;;;;;4938089;28;20043;-70
2022/03/23 03:26:22;;;;;;;7.57;3.40;;;;;;;;;;4938291;28;20046;-69
2022/03/23 03:28:50;;;;;;;10.32;3.53;;;;;;;;;;4938531;28;20062;-69
2022/03/23 03:31:16;;;;;;;5.63;3.22;;;;;;;;;;4938720;28;20119;-70
2022/03/23 03:33:43;;;;;;;6.53;3.40;;;;;;;;;;4938939;28;20043;-69
2022/03/23 03:36:09;;;;;;;7.80;3.13;;;3.20;81.30;;;;;;4938207;28;20054;-70
2022/03/23 03:38:35;;;;;;;9.20;4.47;;;;;;;;;;4963934;28;20129;-69
2022/03/23 03:41:02;;;;;;;15.85;4.10;;;;;;;;;;4997400;28;20042;-69
2022/03/23 03:43:28;;;;;;;8.70;3.60;;;;;;;;;;4998693;28;20069;-69
2022/03/23 03:45:54;;;;;;;7.38;3.20;;;;;;;;;;4996771;28;20121;-70
2022/03/23 03:48:21;;;;;;;3.70;2.83;;;;;;;;;;4996967;28;20034;-70
2022/03/23 03:50:47;;;;;;;8.93;3.63;;;;;;;;;;4997882;28;20109;-69
2022/03/23 03:53:13;;;;;;;6.82;2.97;;;;;;;;;;4977300;28;20457;-70
2022/03/23 03:55:39;;;;;;;9.65;4.22;;;;;;;;;;4977970;28;20081;-69
2022/03/23 03:58:06;;;;;;;8.35;3.95;;;;;;;;;;4979378;28;20034;-69
2022/03/23 04:00:34;;;;;;;4.50;3.35;;;;;;;;;;4976310;28;20463;-70
2022/03/23 04:03:00;;;;;;;6.43;2.85;;;;;;;;;;4977797;28;20069;-69
2022/03/23 04:05:28;;;;;;;4.10;2.75;;;;;;;;;;4976357;28;20034;-69
2022/03/23 04:07:54;;;;;;;7.60;3.70;;;;;;;;;;4977221;28;20112;-69
2022/03/23 04:10:20;;;;;;;7.47;5.72;;;;;;;;;;4979267;28;20038;-69
2022/03/23 04:12:45;;;;;;;7.40;3.58;;;2.90;97.30;;;;;;4977981;28;20033;-68
2022/03/23 04:15:11;;;;;;;4.95;3.42;;;;;;;;;;4977153;28;20038;-69
2022/03/23 04:17:37;;;;;;;9.15;4.43;;;;;;;;;;4974666;28;20026;-70
2022/03/23 04:20:04;;;;;;;5.13;3.40;;;2.60;83.70;;;;;;4977824;28;20533;-69
2022/03/23 04:22:30;;;;;;;5.93;3.83;;;;;;;;;;4978998;28;20019;-69
2022/03/23 04:24:56;;;;;;;8.57;2.95;;;;;;;;;;4976790;28;20038;-69
2022/03/23 04:27:22;;;;;;;4.10;2.00;;;;;;;;;;4979358;28;20104;-71
2022/03/23 04:29:48;;;;;;;7.93;3.00;;;;;;;;;;4991174;28;20058;-70
2022/03/23 04:32:14;;;;;;;14.48;4.95;;;;;;;;;;4976729;28;20037;-69
2022/03/23 04:34:40;;;;;;;3.83;3.42;;;;;;;;;;4976636;28;20038;-70
2022/03/23 04:37:05;;;;;;;8.00;3.88;;;2.60;98.40;;;;;;4992998;28;20381;-69
2022/03/23 04:39:31;;;;;;;6.18;3.03;;;;;;;;;;4976841;28;20105;-69
2022/03/23 04:41:58;;;;;;;5.10;2.63;;;;;;;;;;4977235;28;20084;-69
2022/03/23 04:44:24;;;;;;;4.37;3.97;;;;;;;;;;4977322;28;21016;-70
2022/03/23 04:46:50;;;;;;;8.18;5.00;;;;;;;;;;4977239;28;20177;-69
2022/03/23 04:49:15;;;;;;;4.85;2.40;;;2.70;98.10;;;;;;4977943;28;20026;-70
2022/03/23 04:51:41;;;;;;;9.05;3.47;;;;;;;;;;4983667;28;20076;-69
2022/03/23 04:54:07;;;;;;;7.45;4.40;;;2.60;98.50;;;;;;4979092;28;20501;-69
2022/03/23 04:56:33;;;;;;;6.68;3.67;;;;;;;;;;4997257;28;20030;-70
2022/03/23 04:58:59;;;;;;;7.85;5.10;;;;;;;;;;4997039;28;20162;-70
2022/03/23 05:01:26;;;;;;;10.05;3.72;;;;;;;;;;4998214;28;20045;-70
2022/03/23 05:03:52;;;;;;;5.30;4.15;;;;;;;;;;4996253;28;20052;-69
2022/03/23 05:06:18;;;;;;;8.27;3.97;;;;;;;;;;4996435;28;20066;-70
2022/03/23 05:08:44;;;;;;;6.95;3.78;;;;;;;;;;4996976;28;20030;-69
2022/03/23 05:11:10;;;;;;;7.35;2.90;;;;;;;;;;4996830;28;20510;-69
2022/03/23 05:13:37;;;;;;;12.70;4.65;;;;;;;;;;5001075;28;20041;-70
2022/03/23 05:16:03;;;;;;;6.43;3.78;;;;;;;;;;5000647;28;20044;-69
2022/03/23 05:18:29;;;;;;;7.40;3.70;;;2.50;96.70;;;;;;5000444;28;20034;-69
2022/03/23 05:20:55;;;;;;;9.45;4.63;;;;;;;;;;4999943;28;20103;-70
2022/03/23 05:23:21;;;;;;;17.40;4.22;;;;;;;;;;4999684;28;20030;-70
2022/03/23 05:25:47;;;;;;;5.30;3.22;;;;;;;;;;4999357;28;20034;-68
2022/03/23 05:28:13;;;;;;;5.05;3.40;;;;;;;;;;5000936;28;20033;-70
2022/03/23 05:30:39;;;;;;;7.57;3.72;;;;;;;;;;4999674;28;20655;-70
2022/03/23 05:33:05;;;;;;;11.85;3.13;;;2.30;98.50;;;;;;5000089;28;20121;-69
2022/03/23 05:35:31;;;;;;;4.75;2.88;;;;;;;;;;5000144;28;20712;-69
2022/03/23 05:37:57;;;;;;;7.15;3.95;;;;;;;;;;4998802;28;20519;-69
2022/03/23 05:40:23;;;;;;;7.90;3.90;;;;;;;;;;4983694;28;20487;-71
2022/03/23 05:42:49;;;;;;;6.00;3.10;;;;;;;;;;4998177;28;20702;-69
2022/03/23 05:45:16;;;;;;;7.57;3.65;;;2.20;97.20;;;;;;4998852;28;20057;-69
2022/03/23 05:47:42;;;;;;;5.65;4.13;;;;;;;;;;5001569;28;20056;-69
2022/03/23 05:50:09;;;;;;;7.60;4.63;;;;;;;;;;5000213;28;20034;-68
2022/03/23 05:52:35;;;;;;;5.30;3.95;;;;;;;;;;5000770;28;20096;-68
2022/03/23 05:55:01;;;;;;;11.30;4.07;;;2.30;96.80;;;;;;4999379;28;20037;-70
2022/03/23 05:57:28;;;;;;;13.52;6.43;;;;;;;;;;4998723;28;20034;-68
2022/03/23 05:59:54;;;;;;;7.25;4.75;;;;;;;;;;4999708;28;20041;-71
2022/03/23 06:02:20;;;;;;;9.07;4.30;;;;;;;;;;4997269;28;20069;-69
2022/03/23 06:04:46;;;;;;;7.15;4.30;;;;;;;;;;4996153;28;20030;-70
2022/03/23 06:07:12;;;;;;;8.30;3.35;;;;;;;;;;5000289;28;20084;-70
2022/03/23 06:09:38;;;;;;;17.27;3.92;;;;;;;;;;4999239;28;20022;-69
2022/03/23 06:12:05;;;;;;;23.60;6.50;;;;;;;;;;4997816;28;20052;-68
2022/03/23 06:14:32;;;;;;;12.38;5.85;;;;;;;;;;4994318;28;20022;-68
2022/03/23 06:16:58;;;;;;;12.38;4.38;;;;;;;;;;4997248;28;20056;-69
2022/03/23 06:19:24;;;;;;;15.38;4.25;;;;;;;;;;4980889;28;20041;-68
2022/03/23 06:21:50;;;;;;;6.03;3.88;;;;;;;;;;4996843;28;20105;-69
2022/03/23 06:24:16;;;;;;;11.48;4.82;;;;;;;;;;4994977;28;20050;-69
2022/03/23 06:26:42;;;;;;;11.15;3.92;;;;;;;;;;4997671;28;20473;-68
2022/03/23 06:29:08;;;;;;;6.57;4.63;;;;;;;;;;4995103;28;20475;-68
2022/03/23 06:31:34;;;;;;;7.93;4.55;;;;;;;;;;4999808;28;20030;-69
2022/03/23 06:34:03;;;;;;;7.78;4.82;;;;;;;;;;4995271;28;20022;-69
2022/03/23 06:36:28;;;;;;;7.20;3.88;;;6.00;84.20;;;;;;4995987;28;20391;-69
2022/03/23 06:38:55;;;;;;;9.98;4.15;;;;;;;;;;4995696;28;20041;-69
2022/03/23 06:41:21;;;;;;;8.07;4.40;;;;;;;;;;4995528;28;20506;-69
2022/03/23 06:43:47;;;;;;;8.00;5.00;;;;;;;;;;4996304;28;20030;-69
2022/03/23 06:46:13;;;;;;;10.27;5.53;;;;;;;;;;4998985;28;20384;-68
2022/03/23 06:48:39;;;;;;;8.48;4.75;;;;;;;;;;4997403;28;20029;-69
2022/03/23 06:51:05;;;;;;;9.90;5.25;;;;;;;;;;4996327;28;20033;-68
2022/03/23 06:53:31;;;;;;;13.63;5.45;;;10.60;76.00;;;;;;4979902;28;20033;-68
2022/03/23 06:55:57;;;;;;;7.45;4.07;;;;;;;;;;4997578;28;20026;-69
2022/03/23 06:58:23;;;;;;;12.18;5.22;;;;;;;;;;4978692;28;20107;-69
2022/03/23 07:00:49;;;;;;;15.60;6.45;;;;;;;;;;4996971;28;20462;-69
2022/03/23 07:03:15;;;;;;;11.88;7.97;;;;;;;;;;4998211;28;20043;-70
2022/03/23 07:05:41;;;;;;;9.73;6.68;;;;;;;;;;4996376;28;20563;-69
2022/03/23 07:10:52;;;;;;;15.70;8.18;;;;;;;;;;4998624;28;20052;-69
2022/03/23 07:13:17;;;;;;;15.75;7.95;;;14.40;64.40;;;;;;4999608;28;20030;-69
2022/03/23 07:15:44;;;;;;;12.13;6.53;;;;;;;;;;4995857;28;20041;-69
2022/03/23 07:18:10;;;;;;;10.20;5.73;;;;;;;;;;4997102;28;20036;-70
2022/03/23 07:20:36;;;;;;;14.10;7.78;;;;;;;;;;4997423;28;20300;-70
2022/03/23 07:23:02;;;;;;;15.45;6.68;;;;;;;;;;4996912;28;20112;-69
2022/03/23 07:25:28;;;;;;;24.02;7.35;;;;;;;;;;4998029;28;20471;-69
2022/03/23 07:27:54;;;;;;;13.27;6.63;;;;;;;;;;4997798;28;20313;-70
2022/03/23 07:30:20;;;;;;;9.85;6.13;;;;;;;;;;4997629;28;20050;-69
2022/03/23 07:32:46;;;;;;;9.88;5.80;;;;;;;;;;4997768;28;20064;-69
2022/03/23 07:35:13;;;;;;;9.80;6.53;;;;;;;;;;4995710;28;20593;-70
2022/03/23 07:37:39;;;;;;;;;;;;;;;;;;4997510;28;20038;-68
2022/03/23 07:40:05;;;;;;;13.85;7.05;;;;;;;;;;4997858;28;19923;-70
2022/03/23 07:42:31;;;;;;;8.52;6.20;;;;;;;;;;4996831;28;20026;-69
2022/03/23 07:44:57;;;;;;;8.10;5.87;;;;;;;;;;4987341;28;20038;-69
2022/03/23 07:47:23;;;;;;;14.70;6.60;;;;;;;;;;4984381;28;20065;-71
2022/03/23 07:49:49;;;;;;;8.02;4.93;;;;;;;;;;4991668;28;20065;-71
2022/03/23 07:52:16;;;;;;;11.07;5.47;;;;;;;;;;4975829;28;20042;-71
2022/03/23 07:54:42;;;;;;;8.55;6.03;;;;;;;;;;4989693;28;20467;-70
2022/03/23 07:57:08;;;;;;;11.48;6.70;;;;;;;;;;4986204;28;20605;-70
2022/03/23 07:59:34;;;;;;;16.10;8.60;;;;;;;;;;4990425;28;20046;-70
2022/03/23 08:02:00;;;;;;;9.40;6.63;;;;;;;;;;4991058;28;20044;-70
2022/03/23 08:04:26;;;;;;;9.07;6.07;;;;;;;;;;4991472;28;20033;-71
2022/03/23 08:06:53;;;;;;;12.77;6.15;;;;;;;;;;4980100;28;20116;-70
2022/03/23 08:09:19;;;;;;;8.43;4.78;;;;;;;;;;4986115;28;20095;-68
2022/03/23 08:11:45;;;;;;;6.55;4.85;;;24.90;45.10;;;;;;4990365;28;20512;-69
2022/03/23 08:14:11;;;;;;;8.53;4.47;;;;;;;;;;4971436;28;20038;-71
2022/03/23 08:16:37;;;;;;;12.90;4.03;;;;;;;;;;4984233;28;20830;-70
2022/03/23 08:19:02;;;;;;;9.98;4.10;;;26.50;38.50;;;;;;4989275;28;20033;-69
2022/03/23 08:21:29;;;;;;;7.23;3.97;;;;;;;;;;4990976;28;20042;-70
2022/03/23 08:23:55;;;;;;;;;;;;;;;;;;4988960;28;20038;-71
2022/03/23 08:26:22;;;;;;;4.80;3.33;;;;;;;;;;4984464;28;19917;-70
2022/03/23 08:28:48;;;;;;;7.75;4.20;;;;;;;;;;4973367;28;20057;-70
2022/03/23 08:31:14;;;;;;;6.70;4.82;;;;;;;;;;4993032;28;20089;-70
2022/03/23 08:33:40;;;;;;;7.55;3.65;;;;;;;;;;4991261;28;20164;-70
2022/03/23 08:36:07;;;;;;;6.47;3.70;;;;;;;;;;4982599;28;20023;-70
2022/03/23 08:38:34;;;;;;;6.00;4.03;;;;;;;;;;4976260;28;20462;-71
2022/03/23 08:41:00;;;;;;;;;;;;;;;;;;4989873;28;20096;-70
2022/03/23 08:43:26;;;;;;;;;;;;;;;;;;4981206;28;19913;-71
2022/03/23 08:45:53;;;;;;;5.50;3.17;;;;;;;;;;4962030;28;19925;-70
2022/03/23 08:48:19;;;;;;;14.95;3.53;;;;;;;;;;4982513;28;20050;-71
2022/03/23 08:50:46;;;;;;;10.25;3.42;;;27.30;25.20;;;;;;4969550;28;20038;-71
2022/03/23 08:53:12;;;;;;;5.38;3.58;;;;;;;;;;4992121;28;20056;-71
2022/03/23 08:55:38;;;;;;;16.42;4.25;;;;;;;;;;4988855;28;20026;-71
2022/03/23 08:58:04;;;;;;;7.07;4.22;;;;;;;;;;4971997;28;20665;-71
2022/03/23 09:00:30;;;;;;;9.45;3.75;;;;;;;;;;4989334;28;20096;-70
2022/03/23 09:02:56;;;;;;;5.60;3.55;;;;;;;;;;4991485;28;20046;-70
2022/03/23 09:05:23;;;;;;;7.30;3.45;;;;;;;;;;4966430;28;20050;-71
2022/03/23 09:07:49;;;;;;;;;;;;;;;;;;4983263;28;20558;-70
2022/03/23 09:10:15;;;;;;;4.18;2.90;;;;;;;;;;4992215;28;20008;-71
2022/03/23 09:12:42;;;;;;;6.00;3.50;;;29.20;23.00;;;;;;4991550;28;20026;-70
2022/03/23 09:15:10;;;;;;;9.30;2.90;;;29.50;22.00;;;;;;4989778;28;20030;-70
2022/03/23 09:17:37;;;;;;;7.47;3.83;;;;;;;;;;4983438;28;20446;-71
2022/03/23 09:20:04;;;;;;;5.80;3.72;;;;;;;;;;4991273;28;20050;-69
2022/03/23 09:22:34;;;;;;;4.85;3.47;;;;;;;;;;4991376;28;20037;-71
2022/03/23 09:25:00;;;;;;;7.63;3.97;;;;;;;;;;4988335;28;21427;-70
2022/03/23 09:27:26;;;;;;;10.63;3.93;;;;;;;;;;4977953;28;20038;-72
2022/03/23 09:29:52;;;;;;;6.40;3.45;;;;;;;;;;4988763;28;20283;-71
2022/03/23 09:32:18;;;;;;;5.82;4.00;;;;;;;;;;4978805;28;20752;-72
2022/03/23 09:34:45;;;;;;;5.55;3.17;;;;;;;;;;4989611;28;20076;-73
2022/03/23 09:39:56;;;;;;;7.95;3.53;;;;;;;;;;4988445;28;19995;-74
2022/03/23 09:42:24;;;;;;;7.40;4.13;;;;;;;;;;4987563;28;20411;-72
2022/03/23 09:44:52;;;;;;;7.68;3.80;;;;;;;;;;4986005;28;20030;-72
2022/03/23 09:47:18;;;;;;;6.68;3.38;;;;;;;;;;4977722;28;20030;-72
2022/03/23 09:49:44;;;;;;;6.33;4.00;;;;;;;;;;4972340;28;20027;-71
2022/03/23 09:52:11;;;;;;;6.88;4.18;;;;;;;;;;4988968;28;20120;-71
2022/03/23 09:54:37;;;;;;;10.60;4.70;;;;;;;;;;4975980;28;20125;-71
2022/03/23 09:57:05;;;;;;;6.65;4.05;;;;;;;;;;4982734;28;20049;-71
2022/03/23 09:59:31;;;;;;;7.47;3.63;;;;;;;;;;4993826;28;20565;-71
2022/03/23 10:02:03;;;;;;;8.88;4.68;;;;;;;;;;4985575;28;20034;-70
2022/03/23 10:04:52;;;;;;;6.82;4.47;;;;;;;;;;4995610;28;20034;-71
2022/03/23 10:07:31;;;;;;;7.55;3.90;;;24.00;23.80;;;;;;4986685;28;20040;-69
2022/03/23 10:10:16;;;;;;;9.18;3.80;;;;;;;;;;4994426;28;20026;-70
2022/03/23 10:12:54;;;;;;;8.50;4.38;;;;;;;;;;4991347;28;20057;-71
2022/03/23 10:15:39;;;;;;;8.77;4.15;;;;;;;;;;4990456;28;20052;-70
2022/03/23 10:18:26;;;;;;;6.95;4.47;;;;;;;;;;4987301;28;20044;-70
2022/03/23 10:20:52;;;;;;;6.30;3.92;;;;;;;;;;4994763;28;20046;-69
2022/03/23 10:23:22;;;;;;;14.30;3.97;;;;;;;;;;4992696;28;20490;-69
2022/03/23 10:25:48;;;;;;;9.57;4.82;;;;;;;;;;4988541;28;20402;-71
2022/03/23 10:28:15;;;;;;;10.88;5.30;;;;;;;;;;4991473;28;20030;-70
2022/03/23 10:30:42;;;;;;;8.05;4.13;;;;;;;;;;4977493;28;20101;-70
2022/03/23 10:33:18;;;;;;;8.20;4.43;;;;;;;;;;4990683;28;20031;-73
2022/03/23 10:35:44;;;;;;;12.98;3.85;;;;;;;;;;4987456;28;20105;-70
2022/03/23 10:38:14;;;;;;;7.30;3.75;;;;;;;;;;4990891;28;20058;-70
2022/03/23 10:40:41;;;;;;;6.90;4.15;;;;;;;;;;4995162;28;20169;-70
2022/03/23 10:43:07;;;;;;;7.85;4.07;;;;;;;;;;4992237;28;20038;-69
2022/03/23 10:45:33;;;;;;;9.13;4.38;;;;;;;;;;4964329;28;20042;-71
2022/03/23 10:48:14;;;;;;;9.30;4.45;;;;;;;;;;4979829;28;20044;-69
2022/03/23 10:50:50;;;;;;;8.25;4.15;;;;;;;;;;4993318;28;20026;-70
2022/03/23 10:53:17;;;;;;;9.38;4.28;;;;;;;;;;4990285;28;20686;-71
2022/03/23 10:55:48;;;;;;;6.67;4.17;;;;;;;;;;4989632;28;20413;-72
2022/03/23 10:58:21;;;;;;;17.15;5.65;;;;;;;;;;4988048;28;20483;-70
2022/03/23 11:00:48;;;;;;;12.45;6.43;;;;;;;;;;4990382;28;20765;-68
2022/03/23 11:03:14;;;;;;;8.43;4.07;;;;;;;;;;4988680;28;20696;-69
2022/03/23 11:05:43;;;;;;;7.80;4.18;;;;;;;;;;4988238;28;20954;-71
2022/03/23 11:08:10;;;;;;;8.25;4.07;;;;;;;;;;4986463;28;20031;-70
2022/03/23 11:16:08;;;;;;;9.77;5.85;;;;;;;;;;4982144;28;20103;-71
2022/03/23 11:18:34;;;;;;;9.55;4.50;;;;;;;;;;4990138;28;20058;-70
2022/03/23 11:21:00;;;;;;;7.18;4.63;;;;;;;;;;4990472;28;20043;-71
2022/03/23 11:23:28;;;;;;;8.25;4.80;;;26.00;22.80;;;;;;4988844;28;20037;-71
2022/03/23 11:25:55;;;;;;;12.57;4.60;;;;;;;;;;4986337;28;20099;-71
2022/03/23 11:28:22;;;;;;;6.32;4.20;;;;;;;;;;4992112;28;20030;-70
2022/03/23 11:30:49;;;;;;;7.38;4.30;;;;;;;;;;4987387;28;20026;-70
2022/03/23 11:33:21;;;;;;;11.27;5.10;;;;;;;;;;4989146;28;20357;-70
2022/03/23 11:35:48;;;;;;;14.60;5.60;;;;;;;;;;4986364;28;20034;-70
2022/03/23 11:38:15;;;;;;;10.90;5.75;;;;;;;;;;4984545;28;20041;-70
2022/03/23 11:40:42;;;;;;;9.00;5.05;;;;;;;;;;4992112;28;20535;-71
2022/03/23 11:43:12;;;;;;;11.23;4.60;;;;;;;;;;4990346;28;20054;-69
2022/03/23 11:45:42;;;;;;;13.38;5.85;;;;;;;;;;4985554;28;20125;-71
2022/03/23 11:48:26;;;;;;;9.85;4.95;;;;;;;;;;4982833;28;20516;-70
2022/03/23 11:51:11;;;;;;;9.85;4.15;;;;;;;;;;4989855;28;20444;-69
2022/03/23 11:53:56;;;;;;;9.40;5.38;;;;;;;;;;4991329;28;20097;-70
2022/03/23 11:56:26;;;;;;;10.70;5.50;;;;;;;;;;4979133;28;20037;-70
2022/03/23 11:58:52;;;;;;;9.35;4.60;;;;;;;;;;4990543;28;20026;-70
2022/03/23 12:01:19;;;;;;;8.20;4.70;;;;;;;;;;4990719;28;20065;-71
2022/03/23 12:03:47;;;;;;;5.95;4.47;;;;;;;;;;4987428;28;20038;-70
2022/03/23 12:06:17;;;;;;;9.27;5.88;;;;;;;;;;4983104;28;20043;-70
2022/03/23 12:08:48;;;;;;;9.55;5.78;;;;;;;;;;4972967;28;20523;-70
2022/03/23 12:11:32;;;;;;;35.83;5.45;;;;;;;;;;4989623;28;20996;-70
2022/03/23 12:13:59;;;;;;;6.50;3.47;;;;;;;;;;4990994;28;20939;-70
2022/03/23 12:16:44;;;;;;;13.93;6.23;;;;;;;;;;4982044;28;20030;-70
2022/03/23 12:19:10;;;;;;;10.60;4.75;;;;;;;;;;4991065;28;20041;-70
2022/03/23 12:21:55;;;;;;;6.80;3.90;;;;;;;;;;4985954;28;20494;-70
2022/03/23 12:24:35;;;;;;;13.23;4.20;;;;;;;;;;4988827;28;20073;-70
2022/03/23 12:27:10;;;;;;;8.63;4.13;;;;;;;;;;4972890;28;20030;-71
2022/03/23 12:29:38;;;;;;;6.88;3.40;;;;;;;;;;4990618;28;20034;-72
2022/03/23 12:32:06;;;;;;;10.13;5.72;;;;;;;;;;4987933;28;20031;-69
2022/03/23 12:34:42;;;;;;;7.53;3.78;;;;;;;;;;4990617;28;20403;-69
2022/03/23 12:37:09;;;;;;;9.67;4.80;;;;;;;;;;4979931;28;20030;-69
2022/03/23 12:39:35;;;;;;;8.05;3.78;;;;;;;;;;4988288;28;20042;-69
2022/03/23 12:42:15;;;;;;;8.20;4.35;;;;;;;;;;4988972;28;20039;-70
2022/03/23 12:45:03;;;;;;;6.38;3.72;;;;;;;;;;4989084;28;20128;-69
2022/03/23 12:47:30;;;;;;;5.75;3.17;;;;;;;;;;4979957;28;20045;-69
2022/03/23 12:58:20;;;;;;;9.70;4.30;;;;;;;;;;4973793;28;20064;-70
2022/03/23 13:00:48;;;;;;;14.00;4.93;;;;;;;;;;4973846;28;20038;-71
2022/03/23 13:03:19;;;;;;;6.57;3.80;;;19.30;25.60;;;;;;4988228;28;20029;-71
2022/03/23 13:05:58;;;;;;;9.25;3.67;;;;;;;;;;4985961;28;20041;-70
2022/03/23 13:08:30;;;;;;;5.35;3.10;;;;;;;;;;4984658;28;20113;-71
2022/03/23 13:10:59;;;;;;;6.97;2.75;;;;;;;;;;4990467;28;20022;-69
2022/03/23 13:13:37;;;;;;;6.93;2.55;;;;;;;;;;4990051;28;20037;-69
2022/03/23 13:16:04;;;;;;;5.07;2.83;;;;;;;;;;4978659;28;20038;-69
2022/03/23 13:18:31;;;;;;;6.15;2.65;;;;;;;;;;4985894;28;20739;-69
2022/03/23 13:20:58;;;;;;;6.53;3.50;;;;;;;;;;4985320;28;20077;-69
2022/03/23 13:23:27;;;;;;;8.07;3.80;;;18.10;25.10;;;;;;4989141;28;20030;-69
2022/03/23 13:26:04;;;;;;;5.70;2.70;;;;;;;;;;4986891;28;20084;-72
2022/03/23 13:28:32;;;;;;;3.13;2.20;;;;;;;;;;4989499;28;20090;-69
2022/03/23 13:31:01;;;;;;;6.60;3.42;;;;;;;;;;4981081;28;20511;-70
2022/03/23 13:33:35;;;;;;;10.23;2.88;;;;;;;;;;4990164;28;20056;-69
2022/03/23 13:36:02;;;;;;;8.68;3.78;;;;;;;;;;4987318;28;21441;-72
2022/03/23 13:38:39;;;;;;;5.13;3.38;;;;;;;;;;4980882;28;20051;-68
2022/03/23 13:43:54;;;;;;;7.93;3.55;;;;;;;;;;4993528;28;20073;-71
2022/03/23 13:46:21;;;;;;;6.22;2.72;;;;;;;;;;4982038;28;20321;-70
2022/03/23 13:49:13;;;;;;;7.93;3.50;;;;;;;;;;4991617;28;20021;-69
2022/03/23 13:51:45;;;;;;;6.18;3.85;;;;;;;;;;4964815;28;20051;-64
2022/03/23 13:54:19;;;;;;;7.35;3.63;;;;;;;;;;4989729;28;20452;-67
2022/03/23 13:56:46;;;;;;;12.73;3.85;;;;;;;;;;4985394;28;20041;-69
2022/03/23 13:59:15;;;;;;;5.60;3.53;;;18.10;27.10;;;;;;4993410;28;20025;-70
2022/03/23 14:01:40;;;;;;;6.65;3.45;;;;;;;;;;4993472;28;20088;-69
2022/03/23 14:04:07;;;;;;;12.50;5.25;;;;;;;;;;4990788;28;20030;-69
2022/03/23 14:06:41;;;;;;;6.85;3.40;;;;;;;;;;4979744;28;20087;-67
2022/03/23 14:09:08;;;;;;;9.60;3.75;;;;;;;;;;4995672;28;20843;-66
2022/03/23 14:11:47;;;;;;;13.85;3.65;;;17.80;27.10;;;;;;4993742;28;20033;-68
2022/03/23 14:14:17;;;;;;;8.13;3.25;;;;;;;;;;4991895;28;20172;-68
2022/03/23 14:17:23;;;;;;;10.00;3.60;;;18.00;28.50;;;;;;4983149;28;20030;-68
2022/03/23 14:19:51;;;;;;;6.22;3.85;;;;;;;;;;4994476;28;20031;-67
2022/03/23 14:22:24;;;;;;;7.80;3.58;;;;;;;;;;4989670;28;20037;-67
2022/03/23 14:24:50;;;;;;;5.22;3.10;;;;;;;;;;4993116;28;20022;-67
2022/03/23 14:27:16;;;;;;;6.20;3.53;;;;;;;;;;4985088;28;20116;-68
2022/03/23 14:32:34;;;;;;;10.25;4.10;;;;;;;;;;4981590;28;20034;-66
2022/03/23 14:35:04;;;;;;;6.38;3.40;;;;;;;;;;4992881;28;20031;-69
2022/03/23 14:37:34;;;;;;;10.00;3.35;;;;;;;;;;4983984;28;20045;-65
2022/03/23 14:40:02;;;;;;;6.63;3.00;;;;;;;;;;4991117;28;20046;-69
2022/03/23 14:42:34;;;;;;;6.00;3.40;;;;;;;;;;4992908;28;20031;-68
2022/03/23 14:45:01;;;;;;;9.90;3.85;;;;;;;;;;4990670;28;20085;-69
2022/03/23 14:47:48;;;;;;;6.43;3.58;;;17.10;26.60;;;;;;4984073;28;20065;-68
2022/03/23 14:50:14;;;;;;;8.63;4.17;;;;;;;;;;4986734;28;20053;-66
2022/03/23 14:52:40;;;;;;;10.20;4.35;;;;;;;;;;4993300;28;20058;-68
2022/03/23 14:55:06;;;;;;;4.50;2.83;;;;;;;;;;4990970;28;20045;-68
2022/03/23 14:57:32;;;;;;;5.03;3.40;;;;;;;;;;4982938;28;20438;-69
2022/03/23 15:00:04;;;;;;;6.18;3.88;;;;;;;;;;4985317;28;20026;-70
2022/03/23 15:02:32;;;;;;;11.30;5.15;;;;;;;;;;4972844;28;20092;-69
2022/03/23 15:04:58;;;;;;;8.32;3.67;;;;;;;;;;4972611;28;20022;-69